createdAt,value
2017-10-09T00:00:07.516Z,20.8
2017-10-09T00:02:05.211Z,20.8
2017-10-09T00:04:10.278Z,20.8
2017-10-09T00:06:05.036Z,20.8
2017-10-09T00:08:04.726Z,20.8
2017-10-09T00:10:08.156Z,20.8
2017-10-09T00:12:04.799Z,20.8
2017-10-09T00:14:05.525Z,20.8
2017-10-09T00:16:05.353Z,20.8
2017-10-09T00:18:04.810Z,20.8
2017-10-09T00:20:05.580Z,20.8
2017-10-09T00:22:04.790Z,20.8
2017-10-09T00:24:08.000Z,20.8
2017-10-09T00:26:04.752Z,20.8
2017-10-09T00:28:05.482Z,20.8
2017-10-09T00:30:05.155Z,20.8
2017-10-09T00:32:07.371Z,20.8
2017-10-09T00:34:05.248Z,20.8
2017-10-09T00:36:04.971Z,20.8
2017-10-09T00:38:04.700Z,20.8
2017-10-09T00:40:08.070Z,20.8
2017-10-09T00:42:10.381Z,20.8
2017-10-09T00:44:10.181Z,20.8
2017-10-09T00:46:04.917Z,20.8
2017-10-09T00:48:04.941Z,20.8
2017-10-09T00:50:05.177Z,20.8
2017-10-09T00:52:04.862Z,20.8
2017-10-09T00:54:05.603Z,20.8
2017-10-09T00:56:07.919Z,20.8
2017-10-09T00:58:04.689Z,20.8
2017-10-09T01:00:05.344Z,20.8
2017-10-09T01:02:04.999Z,20.8
2017-10-09T01:04:05.011Z,20.8
2017-10-09T01:06:04.790Z,20.8
2017-10-09T01:08:05.563Z,20.8
2017-10-09T01:10:07.398Z,20.8
2017-10-09T01:12:05.230Z,20.8
2017-10-09T01:14:04.928Z,20.8
2017-10-09T01:16:05.689Z,20.8
2017-10-09T01:18:05.138Z,20.8
2017-10-09T01:20:07.346Z,20.8
2017-10-09T01:22:05.336Z,20.8
2017-10-09T01:24:05.588Z,20.8
2017-10-09T01:26:05.256Z,20.8
2017-10-09T01:28:07.528Z,20.8
2017-10-09T01:30:05.288Z,20.8
2017-10-09T01:32:05.102Z,20.8
2017-10-09T01:34:04.845Z,20.8
2017-10-09T01:36:07.619Z,20.8
2017-10-09T01:38:04.837Z,20.8
2017-10-09T01:40:05.387Z,20.8
2017-10-09T01:42:05.608Z,20.8
2017-10-09T01:44:05.289Z,20.8
2017-10-09T01:46:05.320Z,20.8
2017-10-09T01:48:04.631Z,20.8
2017-10-09T01:50:07.842Z,20.8
2017-10-09T01:52:05.119Z,20.8
2017-10-09T01:54:07.350Z,20.8
2017-10-09T01:56:05.004Z,20.8
2017-10-09T01:58:04.695Z,20.8
2017-10-09T02:00:07.943Z,20.8
2017-10-09T02:02:05.243Z,20.8
2017-10-09T02:04:05.166Z,20.8
2017-10-09T02:06:04.870Z,20.8
2017-10-09T02:08:05.211Z,20.8
2017-10-09T02:10:04.977Z,20.8
2017-10-09T02:12:04.661Z,20.8
2017-10-09T02:14:05.346Z,20.8
2017-10-09T02:16:08.129Z,20.8
2017-10-09T02:18:05.556Z,20.8
2017-10-09T02:20:05.336Z,20.8
2017-10-09T02:22:05.095Z,20.8
2017-10-09T02:24:04.938Z,20.8
2017-10-09T02:26:04.692Z,20.8
2017-10-09T02:28:04.930Z,20.8
2017-10-09T02:30:04.602Z,20.8
2017-10-09T02:32:05.416Z,20.8
2017-10-09T02:34:07.661Z,20.8
2017-10-09T02:36:05.364Z,20.8
2017-10-09T02:38:05.096Z,20.8
2017-10-09T02:40:10.769Z,20.8
2017-10-09T02:42:05.453Z,20.8
2017-10-09T02:44:05.225Z,20.8
2017-10-09T02:46:05.287Z,20.8
2017-10-09T02:48:07.497Z,20.8
2017-10-09T02:50:05.262Z,20.8
2017-10-09T02:52:05.132Z,20.8
2017-10-09T02:54:04.878Z,20.8
2017-10-09T02:56:05.649Z,20.8
2017-10-09T02:58:05.576Z,20.8
2017-10-09T03:00:05.244Z,20.8
2017-10-09T03:02:05.470Z,20.8
2017-10-09T03:04:05.518Z,20.8
2017-10-09T03:06:07.767Z,20.8
2017-10-09T03:08:05.470Z,20.8
2017-10-09T03:10:05.252Z,20.8
2017-10-09T03:12:05.098Z,20.8
2017-10-09T03:14:04.784Z,20.8
2017-10-09T03:16:05.511Z,20.8
2017-10-09T03:18:10.463Z,20.8
2017-10-09T03:20:07.850Z,20.8
2017-10-09T03:22:05.110Z,20.8
2017-10-09T03:24:07.386Z,20.8
2017-10-09T03:26:05.071Z,20.8
2017-10-09T03:28:04.853Z,20.8
2017-10-09T03:30:05.564Z,20.8
2017-10-09T03:32:05.299Z,20.8
2017-10-09T03:34:05.165Z,20.8
2017-10-09T03:36:04.877Z,20.8
2017-10-09T03:38:05.585Z,20.8
2017-10-09T03:40:05.435Z,20.8
2017-10-09T03:42:05.165Z,20.8
2017-10-09T03:44:04.973Z,20.8
2017-10-09T03:46:04.663Z,20.8
2017-10-09T03:48:04.877Z,20.8
2017-10-09T03:50:07.290Z,20.8
2017-10-09T03:52:07.690Z,20.8
2017-10-09T03:54:05.394Z,20.8
2017-10-09T03:56:07.630Z,20.8
2017-10-09T03:58:05.017Z,20.8
2017-10-09T04:00:05.052Z,20.9
2017-10-09T04:02:04.782Z,20.9
2017-10-09T04:04:05.432Z,20.8
2017-10-09T04:06:05.163Z,20.9
2017-10-09T04:08:04.974Z,20.9
2017-10-09T04:10:04.778Z,20.9
2017-10-09T04:12:08.012Z,20.9
2017-10-09T04:14:05.372Z,20.9
2017-10-09T04:16:05.267Z,20.9
2017-10-09T04:18:05.285Z,20.9
2017-10-09T04:20:04.966Z,20.9
2017-10-09T04:22:05.004Z,20.9
2017-10-09T04:24:04.809Z,20.9
2017-10-09T04:26:05.689Z,20.9
2017-10-09T04:28:15.669Z,20.9
2017-10-09T04:30:05.429Z,20.9
2017-10-09T04:32:05.126Z,20.9
2017-10-09T04:34:05.386Z,21
2017-10-09T04:36:10.812Z,20.9
2017-10-09T04:38:08.572Z,20.9
2017-10-09T04:40:10.552Z,21
2017-10-09T04:42:05.249Z,21
2017-10-09T04:44:04.954Z,21
2017-10-09T04:46:04.820Z,21
2017-10-09T04:48:05.687Z,21
2017-10-09T04:50:05.410Z,21
2017-10-09T04:52:05.328Z,21
2017-10-09T04:54:05.089Z,21
2017-10-09T04:56:04.741Z,21
2017-10-09T04:58:05.259Z,21
2017-10-09T05:00:04.988Z,21
2017-10-09T05:02:09.741Z,21
2017-10-09T05:04:05.540Z,21
2017-10-09T05:06:05.244Z,21
2017-10-09T05:08:04.962Z,21
2017-10-09T05:10:04.974Z,21
2017-10-09T05:12:07.215Z,21
2017-10-09T05:14:04.895Z,21
2017-10-09T05:16:04.661Z,21
2017-10-09T05:18:05.576Z,21
2017-10-09T05:20:08.127Z,21
2017-10-09T05:22:07.651Z,21
2017-10-09T05:24:05.543Z,21
2017-10-09T05:26:05.293Z,21
2017-10-09T05:28:07.544Z,21
2017-10-09T05:30:05.242Z,21
2017-10-09T05:32:05.482Z,21
2017-10-09T05:34:05.249Z,21
2017-10-09T05:36:05.085Z,21
2017-10-09T05:38:05.358Z,20.9
2017-10-09T05:40:10.110Z,20.9
2017-10-09T05:42:04.812Z,20.9
2017-10-09T05:44:05.517Z,20.9
2017-10-09T05:46:05.243Z,20.9
2017-10-09T05:48:07.541Z,20.9
2017-10-09T05:50:05.270Z,20.9
2017-10-09T05:52:05.020Z,20.9
2017-10-09T05:54:05.266Z,20.9
2017-10-09T05:56:04.986Z,20.9
2017-10-09T05:58:04.721Z,20.9
2017-10-09T06:00:13.003Z,20.9
2017-10-09T06:02:04.708Z,20.9
2017-10-09T06:04:08.360Z,20.9
2017-10-09T06:06:07.604Z,20.8
2017-10-09T06:08:07.846Z,20.9
2017-10-09T06:10:05.871Z,20.9
2017-10-09T06:12:09.678Z,20.9
2017-10-09T06:14:05.364Z,20.9
2017-10-09T06:16:05.155Z,20.9
2017-10-09T06:18:07.588Z,20.9
2017-10-09T06:20:05.286Z,20.9
2017-10-09T06:22:05.136Z,20.9
2017-10-09T06:24:07.738Z,20.8
2017-10-09T06:26:05.534Z,20.8
2017-10-09T06:28:07.797Z,20.8
2017-10-09T06:30:05.529Z,20.8
2017-10-09T06:32:07.321Z,20.8
2017-10-09T06:34:05.109Z,20.9
2017-10-09T06:36:10.397Z,20.8
2017-10-09T06:38:04.635Z,20.8
2017-10-09T06:40:05.591Z,20.8
2017-10-09T06:42:04.835Z,20.9
2017-10-09T06:44:05.588Z,20.9
2017-10-09T06:46:05.183Z,20.8
2017-10-09T06:48:04.947Z,20.8
2017-10-09T06:50:05.325Z,20.8
2017-10-09T06:52:04.857Z,20.8
2017-10-09T06:54:05.531Z,20.9
2017-10-09T06:56:05.601Z,20.9
2017-10-09T06:58:05.351Z,20.9
2017-10-09T07:00:05.158Z,20.9
2017-10-09T07:02:07.387Z,20.9
2017-10-09T07:04:04.663Z,20.9
2017-10-09T07:06:05.575Z,20.9
2017-10-09T07:08:05.425Z,20.9
2017-10-09T07:10:07.723Z,20.9
2017-10-09T07:12:05.500Z,20.8
2017-10-09T07:14:05.253Z,20.9
2017-10-09T07:16:05.038Z,20.8
2017-10-09T07:18:04.909Z,20.9
2017-10-09T07:20:05.151Z,20.8
2017-10-09T07:22:04.924Z,20.8
2017-10-09T07:24:07.214Z,20.9
2017-10-09T07:26:07.433Z,20.8
2017-10-09T07:28:05.332Z,20.9
2017-10-09T07:30:09.731Z,20.8
2017-10-09T07:32:05.433Z,20.8
2017-10-09T07:34:05.152Z,20.9
2017-10-09T07:36:04.908Z,20.8
2017-10-09T07:38:08.127Z,20.8
2017-10-09T07:40:04.859Z,20.8
2017-10-09T07:42:05.605Z,20.9
2017-10-09T07:44:05.411Z,20.8
2017-10-09T07:46:05.123Z,20.8
2017-10-09T07:48:04.847Z,20.8
2017-10-09T07:50:04.601Z,20.8
2017-10-09T07:52:05.579Z,20.8
2017-10-09T07:54:05.272Z,20.8
2017-10-09T07:56:05.014Z,20.8
2017-10-09T07:58:12.321Z,20.8
2017-10-09T08:00:05.711Z,20.8
2017-10-09T08:02:05.416Z,20.8
2017-10-09T08:04:05.119Z,20.8
2017-10-09T08:06:04.794Z,20.8
2017-10-09T08:08:05.466Z,20.8
2017-10-09T08:10:05.351Z,20.8
2017-10-09T08:12:05.574Z,20.8
2017-10-09T08:14:15.454Z,20.8
2017-10-09T08:16:04.849Z,20.8
2017-10-09T08:18:05.334Z,20.8
2017-10-09T08:20:08.167Z,20.8
2017-10-09T08:22:07.443Z,20.9
2017-10-09T08:24:04.698Z,20.8
2017-10-09T08:26:05.371Z,20.8
2017-10-09T08:28:05.198Z,20.9
2017-10-09T08:30:04.872Z,20.9
2017-10-09T08:32:07.224Z,20.8
2017-10-09T08:34:04.959Z,20.8
2017-10-09T08:36:04.633Z,20.9
2017-10-09T08:38:04.897Z,20.9
2017-10-09T08:40:05.613Z,20.9
2017-10-09T08:42:05.322Z,20.9
2017-10-09T08:44:05.513Z,20.9
2017-10-09T08:46:05.213Z,20.9
2017-10-09T08:48:05.809Z,20.9
2017-10-09T08:50:10.550Z,20.9
2017-10-09T08:52:05.408Z,20.9
2017-10-09T08:54:05.110Z,20.9
2017-10-09T08:56:04.875Z,20.9
2017-10-09T08:58:05.595Z,20.9
2017-10-09T09:00:05.304Z,20.9
2017-10-09T09:02:07.586Z,20.9
2017-10-09T09:04:05.189Z,20.9
2017-10-09T09:06:04.897Z,20.9
2017-10-09T09:08:08.352Z,20.9
2017-10-09T09:10:05.217Z,20.9
2017-10-09T09:12:05.097Z,20.9
2017-10-09T09:14:04.862Z,20.9
2017-10-09T09:16:05.882Z,20.9
2017-10-09T09:18:05.331Z,20.9
2017-10-09T09:20:05.244Z,20.9
2017-10-09T09:22:07.841Z,20.9
2017-10-09T09:24:10.203Z,20.9
2017-10-09T09:26:05.476Z,20.9
2017-10-09T09:28:04.845Z,20.9
2017-10-09T09:30:04.632Z,21
2017-10-09T09:32:05.359Z,20.9
2017-10-09T09:34:05.370Z,20.9
2017-10-09T09:36:05.251Z,20.9
2017-10-09T09:38:04.999Z,21
2017-10-09T09:40:04.729Z,20.9
2017-10-09T09:42:05.428Z,21
2017-10-09T09:44:05.216Z,20.9
2017-10-09T09:46:10.165Z,20.9
2017-10-09T09:48:04.874Z,20.9
2017-10-09T09:50:05.569Z,20.9
2017-10-09T09:52:07.839Z,21
2017-10-09T09:54:05.541Z,20.9
2017-10-09T09:56:09.845Z,20.9
2017-10-09T09:58:05.835Z,21
2017-10-09T10:00:07.507Z,21
2017-10-09T10:02:10.559Z,21
2017-10-09T10:04:05.868Z,21
2017-10-09T10:06:05.193Z,21
2017-10-09T10:08:05.532Z,21
2017-10-09T10:10:04.901Z,21
2017-10-09T10:12:07.852Z,20.9
2017-10-09T10:14:04.999Z,21
2017-10-09T10:16:05.246Z,21
2017-10-09T10:18:14.798Z,21
2017-10-09T10:20:05.337Z,21
2017-10-09T10:22:05.781Z,21
2017-10-09T10:24:15.163Z,21
2017-10-09T10:26:05.282Z,21
2017-10-09T10:28:05.470Z,21
2017-10-09T10:30:05.581Z,21
2017-10-09T10:32:05.676Z,21
2017-10-09T10:34:05.148Z,21
2017-10-09T10:36:10.164Z,21
2017-10-09T10:38:05.206Z,21
2017-10-09T10:40:05.401Z,21
2017-10-09T10:42:07.700Z,21
2017-10-09T10:44:04.956Z,20.9
2017-10-09T10:46:05.146Z,21
2017-10-09T10:48:07.808Z,21
2017-10-09T10:50:05.133Z,21
2017-10-09T10:52:07.620Z,21
2017-10-09T10:54:04.941Z,21
2017-10-09T10:56:05.262Z,21
2017-10-09T10:58:05.665Z,21
2017-10-09T11:00:04.946Z,21
2017-10-09T11:02:05.238Z,21
2017-10-09T11:04:08.250Z,21.1
2017-10-09T11:06:05.516Z,21
2017-10-09T11:08:04.874Z,21.1
2017-10-09T11:10:05.290Z,21.1
2017-10-09T11:12:04.846Z,21
2017-10-09T11:14:05.031Z,21
2017-10-09T11:16:05.429Z,21.1
2017-10-09T11:18:12.536Z,21.1
2017-10-09T11:20:12.392Z,21
2017-10-09T11:22:05.753Z,21.1
2017-10-09T11:24:08.134Z,21.1
2017-10-09T11:26:05.084Z,21.1
2017-10-09T11:28:07.801Z,21.1
2017-10-09T11:30:05.142Z,21.1
2017-10-09T11:32:07.406Z,21.1
2017-10-09T11:34:05.274Z,21.1
2017-10-09T11:36:05.715Z,21.1
2017-10-09T11:38:05.129Z,21.1
2017-10-09T11:40:05.502Z,21.1
2017-10-09T11:42:07.436Z,21.1
2017-10-09T11:44:05.002Z,21
2017-10-09T11:46:05.665Z,21.1
2017-10-09T11:48:05.874Z,21.1
2017-10-09T11:50:05.343Z,21.1
2017-10-09T11:52:05.714Z,21.1
2017-10-09T11:54:08.385Z,21.1
2017-10-09T11:56:05.687Z,21.1
2017-10-09T11:58:04.976Z,21.2
2017-10-09T12:00:10.629Z,21.1
2017-10-09T12:02:05.192Z,21.1
2017-10-09T12:04:07.658Z,21.1
2017-10-09T12:06:05.037Z,21.1
2017-10-09T12:08:05.546Z,21.1
2017-10-09T12:10:04.880Z,21.2
2017-10-09T12:12:05.158Z,21.2
2017-10-09T12:14:04.863Z,21.2
2017-10-09T12:16:05.650Z,21.2
2017-10-09T12:18:05.538Z,21.2
2017-10-09T12:20:05.275Z,21.2
2017-10-09T12:22:05.170Z,21.2
2017-10-09T12:24:05.159Z,21.2
2017-10-09T12:26:09.954Z,21.3
2017-10-09T12:28:04.959Z,21.2
2017-10-09T12:30:04.648Z,21.2
2017-10-09T12:32:05.431Z,21.2
2017-10-09T12:34:05.149Z,21.2
2017-10-09T12:36:10.472Z,21.2
2017-10-09T12:38:08.157Z,21.2
2017-10-09T12:40:05.197Z,21.2
2017-10-09T12:42:05.448Z,21.2
2017-10-09T12:44:05.698Z,21.2
2017-10-09T12:46:05.194Z,21.2
2017-10-09T12:48:05.785Z,21.2
2017-10-09T12:50:07.516Z,21.2
2017-10-09T12:52:05.561Z,21.2
2017-10-09T12:54:05.568Z,21.2
2017-10-09T12:56:05.519Z,21.2
2017-10-09T12:58:07.375Z,21.2
2017-10-09T13:00:05.632Z,21.2
2017-10-09T13:02:04.696Z,21.2
2017-10-09T13:04:04.854Z,21.2
2017-10-09T13:06:09.829Z,21.2
2017-10-09T13:08:04.825Z,21.2
2017-10-09T13:10:09.990Z,21.2
2017-10-09T13:12:07.356Z,21.2
2017-10-09T13:14:05.041Z,21.2
2017-10-09T13:16:04.902Z,21.2
2017-10-09T13:18:04.814Z,21.2
2017-10-09T13:20:05.248Z,21.2
2017-10-09T13:22:07.480Z,21.2
2017-10-09T13:24:07.742Z,21.2
2017-10-09T13:26:04.917Z,21.2
2017-10-09T13:28:04.973Z,21.2
2017-10-09T13:30:04.690Z,21.2
2017-10-09T13:32:05.598Z,21.2
2017-10-09T13:34:04.841Z,21.1
2017-10-09T13:36:05.748Z,21.1
2017-10-09T13:38:10.528Z,21.1
2017-10-09T13:40:04.926Z,21.1
2017-10-09T13:42:05.161Z,21.1
2017-10-09T13:44:04.963Z,21.1
2017-10-09T13:46:04.854Z,21.1
2017-10-09T13:48:04.801Z,21.1
2017-10-09T13:50:07.758Z,21.1
2017-10-09T13:52:05.730Z,21.1
2017-10-09T13:54:05.435Z,21.1
2017-10-09T13:56:05.649Z,21.1
2017-10-09T13:58:06.359Z,21.1
2017-10-09T14:00:05.088Z,21.1
2017-10-09T14:02:05.208Z,21.1
2017-10-09T14:04:07.997Z,21.1
2017-10-09T14:06:04.686Z,21.1
2017-10-09T14:08:04.924Z,21.1
2017-10-09T14:10:05.197Z,21.1
2017-10-09T14:12:04.952Z,21.1
2017-10-09T14:14:04.742Z,21.1
2017-10-09T14:16:05.145Z,21.1
2017-10-09T14:18:05.329Z,21.1
2017-10-09T14:20:05.270Z,21.1
2017-10-09T14:22:04.996Z,21.2
2017-10-09T14:24:04.706Z,21.2
2017-10-09T14:26:05.149Z,21.2
2017-10-09T14:28:05.515Z,21.2
2017-10-09T14:30:07.824Z,21.2
2017-10-09T14:40:05.039Z,21.3
2017-10-09T14:42:05.276Z,21.3
2017-10-09T14:44:05.222Z,21.3
2017-10-09T14:46:05.464Z,21.3
2017-10-09T14:48:07.266Z,21.3
2017-10-09T14:50:11.121Z,21.2
2017-10-09T14:52:09.916Z,21.3
2017-10-09T14:54:04.664Z,21.2
2017-10-09T14:56:05.422Z,21.3
2017-10-09T14:58:05.173Z,21.3
2017-10-09T15:00:04.938Z,21.2
2017-10-09T15:02:04.683Z,21.3
2017-10-09T15:04:05.425Z,21.2
2017-10-09T15:06:05.090Z,21.3
2017-10-09T15:08:04.813Z,21.3
2017-10-09T15:10:05.497Z,21.2
2017-10-09T15:12:04.943Z,21.2
2017-10-09T15:14:04.625Z,21.2
2017-10-09T15:16:05.379Z,21.2
2017-10-09T15:18:05.562Z,21.2
2017-10-09T15:20:05.309Z,21.2
2017-10-09T15:22:07.608Z,21.3
2017-10-09T15:24:05.315Z,21.3
2017-10-09T15:26:05.031Z,21.3
2017-10-09T15:28:07.667Z,21.3
2017-10-09T15:30:04.923Z,21.3
2017-10-09T15:32:05.163Z,21.3
2017-10-09T15:34:12.758Z,21.3
2017-10-09T15:36:07.533Z,21.3
2017-10-09T15:38:09.914Z,21.3
2017-10-09T15:40:04.844Z,21.3
2017-10-09T15:42:04.787Z,21.3
2017-10-09T15:44:05.626Z,21.3
2017-10-09T15:46:10.487Z,21.3
2017-10-09T15:48:17.385Z,21.3
2017-10-09T15:50:10.794Z,21.3
2017-10-09T15:52:05.376Z,21.3
2017-10-09T15:54:04.816Z,21.3
2017-10-09T15:56:05.011Z,21.3
2017-10-09T15:58:08.294Z,21.4
2017-10-09T16:00:07.963Z,21.5
2017-10-09T16:02:04.884Z,21.5
2017-10-09T16:04:08.303Z,21.6
2017-10-09T16:06:05.439Z,21.6
2017-10-09T16:08:04.709Z,21.6
2017-10-09T16:10:05.632Z,21.7
2017-10-09T16:12:07.386Z,21.7
2017-10-09T16:14:04.674Z,21.8
2017-10-09T16:16:13.189Z,21.8
2017-10-09T16:18:10.184Z,21.8
2017-10-09T16:20:04.860Z,21.8
2017-10-09T16:22:05.668Z,21.8
2017-10-09T16:24:05.371Z,21.9
2017-10-09T16:26:10.297Z,21.9
2017-10-09T16:28:05.864Z,21.9
2017-10-09T16:30:09.678Z,22
2017-10-09T16:32:05.716Z,22
2017-10-09T16:34:05.756Z,22
2017-10-09T16:36:10.056Z,22
2017-10-09T16:38:04.789Z,22
2017-10-09T16:40:05.536Z,22
2017-10-09T16:42:07.817Z,22.1
2017-10-09T16:44:05.513Z,22.1
2017-10-09T16:46:05.271Z,22.1
2017-10-09T16:48:05.323Z,22.1
2017-10-09T16:50:05.542Z,22.1
2017-10-09T16:52:05.265Z,22.1
2017-10-09T16:54:05.045Z,22.2
2017-10-09T16:56:04.741Z,22.2
2017-10-09T16:58:05.453Z,22.2
2017-10-09T17:00:07.856Z,22.2
2017-10-09T17:02:05.356Z,22.2
2017-10-09T17:04:07.773Z,22.2
2017-10-09T17:06:04.679Z,22.2
2017-10-09T17:08:10.326Z,22.3
2017-10-09T17:10:10.151Z,22.3
2017-10-09T17:12:05.404Z,22.3
2017-10-09T17:14:05.127Z,22.3
2017-10-09T17:16:04.883Z,22.3
2017-10-09T17:18:07.339Z,22.3
2017-10-09T17:20:10.193Z,22.3
2017-10-09T17:22:04.876Z,22.3
2017-10-09T17:24:05.592Z,22.3
2017-10-09T17:26:10.381Z,22.4
2017-10-09T17:28:05.118Z,22.3
2017-10-09T17:30:07.398Z,22.4
2017-10-09T17:32:07.891Z,22.4
2017-10-09T17:34:04.687Z,22.4
2017-10-09T17:36:05.450Z,22.4
2017-10-09T17:38:05.190Z,22.4
2017-10-09T17:40:04.903Z,22.4
2017-10-09T17:42:04.659Z,22.4
2017-10-09T17:44:07.953Z,22.4
2017-10-09T17:46:05.267Z,22.4
2017-10-09T17:48:05.032Z,22.4
2017-10-09T17:50:07.367Z,22.4
2017-10-09T17:52:05.020Z,22.4
2017-10-09T17:54:04.775Z,22.4
2017-10-09T17:56:15.659Z,22.5
2017-10-09T17:58:05.434Z,22.5
2017-10-09T18:00:07.244Z,22.4
2017-10-09T18:02:10.523Z,22.5
2017-10-09T18:04:05.533Z,22.4
2017-10-09T18:06:05.198Z,22.5
2017-10-09T18:08:05.096Z,22.5
2017-10-09T18:10:05.391Z,22.4
2017-10-09T18:12:05.239Z,22.4
2017-10-09T18:14:07.520Z,22.3
2017-10-09T18:16:05.175Z,22.3
2017-10-09T18:18:05.058Z,22.2
2017-10-09T18:20:07.288Z,22.1
2017-10-09T18:22:05.079Z,22.1
2017-10-09T18:24:04.832Z,22.1
2017-10-09T18:26:05.533Z,22
2017-10-09T18:28:04.783Z,22
2017-10-09T18:30:05.505Z,22
2017-10-09T18:32:05.180Z,22
2017-10-09T18:34:04.891Z,22
2017-10-09T18:36:05.627Z,22
2017-10-09T18:38:05.410Z,22
2017-10-09T18:40:05.536Z,21.9
2017-10-09T18:42:04.754Z,22
2017-10-09T18:44:10.524Z,21.9
2017-10-09T18:46:05.031Z,21.9
2017-10-09T18:48:04.734Z,21.9
2017-10-09T18:50:18.096Z,21.9
2017-10-09T18:52:04.807Z,21.9
2017-10-09T18:54:08.051Z,21.9
2017-10-09T18:56:04.788Z,21.8
2017-10-09T18:58:05.547Z,21.8
2017-10-09T19:00:05.408Z,21.8
2017-10-09T19:02:10.191Z,21.8
2017-10-09T19:04:04.902Z,21.8
2017-10-09T19:06:04.695Z,21.8
2017-10-09T19:08:10.541Z,21.8
2017-10-09T19:10:05.248Z,21.8
2017-10-09T19:12:07.544Z,21.8
2017-10-09T19:14:05.263Z,21.8
2017-10-09T19:16:12.549Z,21.8
2017-10-09T19:18:07.980Z,21.8
2017-10-09T19:20:05.254Z,21.8
2017-10-09T19:22:05.542Z,21.8
2017-10-09T19:24:05.214Z,21.8
2017-10-09T19:26:04.946Z,21.7
2017-10-09T19:28:04.636Z,21.8
2017-10-09T19:30:05.384Z,21.7
2017-10-09T19:32:05.169Z,21.8
2017-10-09T19:34:04.945Z,21.8
2017-10-09T19:36:07.736Z,21.7
2017-10-09T19:38:04.981Z,21.8
2017-10-09T19:40:04.656Z,21.7
2017-10-09T19:42:10.441Z,21.7
2017-10-09T19:44:10.506Z,21.7
2017-10-09T19:46:04.765Z,21.7
2017-10-09T19:48:05.499Z,21.7
2017-10-09T19:50:12.364Z,21.7
2017-10-09T19:52:10.108Z,21.7
2017-10-09T19:54:04.799Z,21.7
2017-10-09T19:56:09.108Z,21.8
2017-10-09T19:58:05.057Z,21.8
2017-10-09T20:00:04.952Z,21.8
2017-10-09T20:02:04.685Z,21.8
2017-10-09T20:04:05.488Z,21.8
2017-10-09T20:06:07.774Z,21.8
2017-10-09T20:08:05.479Z,21.8
2017-10-09T20:10:04.739Z,21.8
2017-10-09T20:12:05.758Z,21.8
2017-10-09T20:14:05.442Z,21.8
2017-10-09T20:16:05.238Z,21.8
2017-10-09T20:18:05.222Z,21.8
2017-10-09T20:20:07.431Z,21.8
2017-10-09T20:22:04.647Z,21.8
2017-10-09T20:24:07.944Z,21.8
2017-10-09T20:26:07.146Z,21.8
2017-10-09T20:28:05.405Z,21.8
2017-10-09T20:30:05.258Z,21.7
2017-10-09T20:32:05.356Z,21.7
2017-10-09T20:34:04.789Z,21.7
2017-10-09T20:36:05.527Z,21.7
2017-10-09T20:38:05.273Z,21.7
2017-10-09T20:40:05.019Z,21.7
2017-10-09T20:42:07.317Z,21.7
2017-10-09T20:44:05.171Z,21.7
2017-10-09T20:46:05.499Z,21.7
2017-10-09T20:48:05.346Z,21.7
2017-10-09T20:50:07.642Z,21.7
2017-10-09T20:52:05.367Z,21.7
2017-10-09T20:54:07.736Z,21.7
2017-10-09T20:56:05.502Z,21.7
2017-10-09T20:58:05.245Z,21.7
2017-10-09T21:00:08.116Z,21.7
2017-10-09T21:02:05.793Z,21.7
2017-10-09T21:04:05.678Z,21.7
2017-10-09T21:06:20.298Z,21.7
2017-10-09T21:08:06.026Z,21.7
2017-10-09T21:10:07.326Z,21.7
2017-10-09T21:12:05.630Z,21.7
2017-10-09T21:14:10.443Z,21.7
2017-10-09T21:16:07.788Z,21.7
2017-10-09T21:18:07.554Z,21.7
2017-10-09T21:20:10.374Z,21.7
2017-10-09T21:22:04.688Z,21.7
2017-10-09T21:24:08.095Z,21.7
2017-10-09T21:26:06.336Z,21.7
2017-10-09T21:28:05.575Z,21.6
2017-10-09T21:30:15.824Z,21.6
2017-10-09T21:32:07.944Z,21.6
2017-10-09T21:34:04.669Z,21.6
2017-10-09T21:36:05.517Z,21.6
2017-10-09T21:38:05.476Z,21.6
2017-10-09T21:40:05.410Z,21.6
2017-10-09T21:42:04.656Z,21.6
2017-10-09T21:44:05.443Z,21.5
2017-10-09T21:46:04.905Z,21.6
2017-10-09T21:48:04.616Z,21.6
2017-10-09T21:50:05.323Z,21.6
2017-10-09T21:52:05.590Z,21.6
2017-10-09T21:54:05.310Z,21.6
2017-10-09T21:56:10.069Z,21.5
2017-10-09T21:58:04.828Z,21.5
2017-10-09T22:00:05.084Z,21.5
2017-10-09T22:02:04.824Z,21.5
2017-10-09T22:04:05.684Z,21.5
2017-10-09T22:06:05.484Z,21.5
2017-10-09T22:08:12.956Z,21.5
2017-10-09T22:10:07.189Z,21.5
2017-10-09T22:12:04.894Z,21.5
2017-10-09T22:14:04.628Z,21.5
2017-10-09T22:16:07.903Z,21.5
2017-10-09T22:18:04.888Z,21.5
2017-10-09T22:20:05.630Z,21.5
2017-10-09T22:22:07.927Z,21.5
2017-10-09T22:24:10.213Z,21.5
2017-10-09T22:26:07.482Z,21.5
2017-10-09T22:28:05.493Z,21.5
2017-10-09T22:30:05.252Z,21.5
2017-10-09T22:32:05.522Z,21.4
2017-10-09T22:34:05.272Z,21.4
2017-10-09T22:36:07.516Z,21.5
2017-10-09T22:38:04.996Z,21.4
2017-10-09T22:40:07.289Z,21.4
2017-10-09T22:42:05.013Z,21.4
2017-10-09T22:44:07.280Z,21.4
2017-10-09T22:46:05.206Z,21.4
2017-10-09T22:48:07.493Z,21.4
2017-10-09T22:50:05.176Z,21.4
2017-10-09T22:52:10.010Z,21.4
2017-10-09T22:54:04.717Z,21.4
2017-10-09T22:56:05.518Z,21.5
2017-10-09T22:58:07.811Z,21.4
2017-10-09T23:00:05.578Z,21.4
2017-10-09T23:02:05.249Z,21.4
2017-10-09T23:04:08.183Z,21.4
2017-10-09T23:06:04.848Z,21.4
2017-10-09T23:08:05.625Z,21.4
2017-10-09T23:10:05.457Z,21.4
2017-10-09T23:12:05.252Z,21.4
2017-10-09T23:14:04.959Z,21.4
2017-10-09T23:16:09.764Z,21.4
2017-10-09T23:18:05.191Z,21.4
2017-10-09T23:20:04.935Z,21.4
2017-10-09T23:22:04.777Z,21.4
2017-10-09T23:24:08.049Z,21.4
2017-10-09T23:26:07.350Z,21.4
2017-10-09T23:28:10.457Z,21.4
2017-10-09T23:30:04.718Z,21.4
2017-10-09T23:32:05.433Z,21.4
2017-10-09T23:34:05.200Z,21.4
2017-10-09T23:36:04.980Z,21.4
2017-10-09T23:38:07.238Z,21.4
2017-10-09T23:40:05.206Z,21.4
2017-10-09T23:42:04.952Z,21.4
2017-10-09T23:44:04.642Z,21.4
2017-10-09T23:46:07.477Z,21.4
2017-10-09T23:48:05.264Z,21.4
2017-10-09T23:50:05.025Z,21.4
2017-10-09T23:52:04.925Z,21.4
2017-10-09T23:54:04.731Z,21.4
2017-10-09T23:56:05.459Z,21.4
2017-10-09T23:58:05.264Z,21.4
